sensor_id;sensor_type;location;lat;lon;timestamp;P1;durP1;ratioP1;P2;durP2;ratioP2
73142;SDS011;61343;53.694;9.988;2022-10-31T00:01:06;22.17;;;13.07;;
73142;SDS011;61343;53.694;9.988;2022-10-31T00:03:35;22.58;;;13.73;;
73142;SDS011;61343;53.694;9.988;2022-10-31T00:06:00;22.57;;;12.93;;
73142;SDS011;61343;53.694;9.988;2022-10-31T00:08:26;23.67;;;13.57;;
73142;SDS011;61343;53.694;9.988;2022-10-31T00:10:51;22.77;;;13.80;;
73142;SDS011;61343;53.694;9.988;2022-10-31T00:13:17;22.70;;;14.17;;
73142;SDS011;61343;53.694;9.988;2022-10-31T00:15:42;23.07;;;14.87;;
73142;SDS011;61343;53.694;9.988;2022-10-31T00:18:08;24.23;;;15.00;;
73142;SDS011;61343;53.694;9.988;2022-10-31T00:20:34;30.92;;;17.52;;
73142;SDS011;61343;53.694;9.988;2022-10-31T00:23:00;30.27;;;16.67;;
73142;SDS011;61343;53.694;9.988;2022-10-31T00:25:27;29.42;;;17.02;;
73142;SDS011;61343;53.694;9.988;2022-10-31T00:27:53;33.85;;;18.98;;
73142;SDS011;61343;53.694;9.988;2022-10-31T00:30:19;33.97;;;19.03;;
73142;SDS011;61343;53.694;9.988;2022-10-31T00:32:44;30.37;;;18.23;;
73142;SDS011;61343;53.694;9.988;2022-10-31T00:35:09;32.00;;;17.83;;
73142;SDS011;61343;53.694;9.988;2022-10-31T00:37:35;28.63;;;17.90;;
73142;SDS011;61343;53.694;9.988;2022-10-31T00:40:00;33.63;;;19.17;;
73142;SDS011;61343;53.694;9.988;2022-10-31T00:42:25;28.03;;;16.90;;
73142;SDS011;61343;53.694;9.988;2022-10-31T00:44:50;33.50;;;17.60;;
73142;SDS011;61343;53.694;9.988;2022-10-31T00:47:16;29.07;;;17.37;;
73142;SDS011;61343;53.694;9.988;2022-10-31T00:49:41;27.50;;;16.57;;
73142;SDS011;61343;53.694;9.988;2022-10-31T00:52:12;26.87;;;16.97;;
73142;SDS011;61343;53.694;9.988;2022-10-31T00:54:37;27.45;;;15.82;;
73142;SDS011;61343;53.694;9.988;2022-10-31T00:57:03;26.53;;;16.33;;
73142;SDS011;61343;53.694;9.988;2022-10-31T00:59:28;28.47;;;17.57;;
73142;SDS011;61343;53.694;9.988;2022-10-31T01:01:53;28.47;;;15.87;;
73142;SDS011;61343;53.694;9.988;2022-10-31T01:04:18;31.73;;;17.67;;
73142;SDS011;61343;53.694;9.988;2022-10-31T01:06:44;29.30;;;17.17;;
73142;SDS011;61343;53.694;9.988;2022-10-31T01:09:09;28.73;;;16.60;;
73142;SDS011;61343;53.694;9.988;2022-10-31T01:11:34;31.83;;;18.00;;
73142;SDS011;61343;53.694;9.988;2022-10-31T01:14:00;28.98;;;17.05;;
73142;SDS011;61343;53.694;9.988;2022-10-31T01:16:26;35.37;;;18.10;;
73142;SDS011;61343;53.694;9.988;2022-10-31T01:18:52;33.67;;;18.33;;
73142;SDS011;61343;53.694;9.988;2022-10-31T01:21:19;34.40;;;19.27;;
73142;SDS011;61343;53.694;9.988;2022-10-31T01:23:46;34.20;;;18.48;;
73142;SDS011;61343;53.694;9.988;2022-10-31T01:28:46;33.80;;;18.80;;
73142;SDS011;61343;53.694;9.988;2022-10-31T01:31:12;33.95;;;19.10;;
73142;SDS011;61343;53.694;9.988;2022-10-31T01:33:38;36.90;;;19.30;;
73142;SDS011;61343;53.694;9.988;2022-10-31T01:36:20;35.40;;;19.73;;
73142;SDS011;61343;53.694;9.988;2022-10-31T01:38:50;33.03;;;19.02;;
73142;SDS011;61343;53.694;9.988;2022-10-31T01:41:18;39.95;;;20.33;;
73142;SDS011;61343;53.694;9.988;2022-10-31T01:43:47;34.47;;;19.58;;
73142;SDS011;61343;53.694;9.988;2022-10-31T01:46:15;36.58;;;20.00;;
73142;SDS011;61343;53.694;9.988;2022-10-31T01:49:05;36.30;;;19.87;;
73142;SDS011;61343;53.694;9.988;2022-10-31T01:51:38;35.85;;;18.77;;
73142;SDS011;61343;53.694;9.988;2022-10-31T01:54:08;35.95;;;19.05;;
73142;SDS011;61343;53.694;9.988;2022-10-31T01:56:38;39.67;;;20.42;;
73142;SDS011;61343;53.694;9.988;2022-10-31T01:59:07;39.10;;;20.17;;
73142;SDS011;61343;53.694;9.988;2022-10-31T02:01:36;42.03;;;20.33;;
73142;SDS011;61343;53.694;9.988;2022-10-31T02:04:02;37.25;;;19.23;;
73142;SDS011;61343;53.694;9.988;2022-10-31T02:06:33;36.22;;;19.67;;
73142;SDS011;61343;53.694;9.988;2022-10-31T02:09:03;40.25;;;22.05;;
73142;SDS011;61343;53.694;9.988;2022-10-31T02:11:29;34.20;;;19.98;;
73142;SDS011;61343;53.694;9.988;2022-10-31T02:13:56;32.87;;;19.53;;
73142;SDS011;61343;53.694;9.988;2022-10-31T02:16:24;42.10;;;20.95;;
73142;SDS011;61343;53.694;9.988;2022-10-31T02:18:49;38.03;;;20.10;;
73142;SDS011;61343;53.694;9.988;2022-10-31T02:21:15;39.33;;;20.97;;
73142;SDS011;61343;53.694;9.988;2022-10-31T02:26:57;36.00;;;19.75;;
73142;SDS011;61343;53.694;9.988;2022-10-31T02:32:27;36.13;;;18.90;;
73142;SDS011;61343;53.694;9.988;2022-10-31T02:35:14;36.17;;;19.05;;
73142;SDS011;61343;53.694;9.988;2022-10-31T02:40:49;39.25;;;20.05;;
73142;SDS011;61343;53.694;9.988;2022-10-31T02:43:36;44.67;;;21.42;;
73142;SDS011;61343;53.694;9.988;2022-10-31T02:46:21;36.83;;;20.00;;
73142;SDS011;61343;53.694;9.988;2022-10-31T02:48:53;38.10;;;20.75;;
73142;SDS011;61343;53.694;9.988;2022-10-31T02:51:23;37.42;;;19.40;;
73142;SDS011;61343;53.694;9.988;2022-10-31T02:53:48;41.93;;;21.47;;
73142;SDS011;61343;53.694;9.988;2022-10-31T02:56:14;38.90;;;20.73;;
73142;SDS011;61343;53.694;9.988;2022-10-31T02:58:52;39.15;;;19.33;;
73142;SDS011;61343;53.694;9.988;2022-10-31T03:01:33;39.40;;;21.23;;
73142;SDS011;61343;53.694;9.988;2022-10-31T03:07:03;44.87;;;21.23;;
73142;SDS011;61343;53.694;9.988;2022-10-31T03:10:38;40.20;;;20.30;;
73142;SDS011;61343;53.694;9.988;2022-10-31T03:15:27;38.33;;;20.40;;
73142;SDS011;61343;53.694;9.988;2022-10-31T03:21:12;39.97;;;20.43;;
73142;SDS011;61343;53.694;9.988;2022-10-31T03:23:32;48.45;;;21.73;;
73142;SDS011;61343;53.694;9.988;2022-10-31T03:26:00;37.67;;;20.45;;
73142;SDS011;61343;53.694;9.988;2022-10-31T03:28:32;38.78;;;21.23;;
73142;SDS011;61343;53.694;9.988;2022-10-31T03:31:03;64.10;;;20.10;;
73142;SDS011;61343;53.694;9.988;2022-10-31T03:33:31;38.07;;;19.33;;
73142;SDS011;61343;53.694;9.988;2022-10-31T03:36:00;36.53;;;19.80;;
73142;SDS011;61343;53.694;9.988;2022-10-31T03:38:29;41.75;;;19.90;;
73142;SDS011;61343;53.694;9.988;2022-10-31T03:40:55;42.30;;;20.48;;
73142;SDS011;61343;53.694;9.988;2022-10-31T03:43:26;35.40;;;19.77;;
73142;SDS011;61343;53.694;9.988;2022-10-31T03:45:57;36.93;;;19.50;;
73142;SDS011;61343;53.694;9.988;2022-10-31T03:48:23;39.00;;;19.55;;
73142;SDS011;61343;53.694;9.988;2022-10-31T03:50:57;35.75;;;19.30;;
73142;SDS011;61343;53.694;9.988;2022-10-31T03:53:34;45.33;;;20.67;;
73142;SDS011;61343;53.694;9.988;2022-10-31T03:56:08;47.23;;;21.80;;
73142;SDS011;61343;53.694;9.988;2022-10-31T03:58:46;46.42;;;22.05;;
73142;SDS011;61343;53.694;9.988;2022-10-31T04:01:18;41.95;;;20.35;;
73142;SDS011;61343;53.694;9.988;2022-10-31T04:03:46;43.40;;;21.13;;
73142;SDS011;61343;53.694;9.988;2022-10-31T04:06:13;47.08;;;22.92;;
73142;SDS011;61343;53.694;9.988;2022-10-31T04:08:43;48.00;;;22.73;;
73142;SDS011;61343;53.694;9.988;2022-10-31T04:11:12;48.05;;;24.35;;
73142;SDS011;61343;53.694;9.988;2022-10-31T04:13:40;49.60;;;23.45;;
73142;SDS011;61343;53.694;9.988;2022-10-31T04:16:09;50.60;;;24.17;;
73142;SDS011;61343;53.694;9.988;2022-10-31T04:18:36;54.72;;;25.40;;
73142;SDS011;61343;53.694;9.988;2022-10-31T04:21:02;57.97;;;25.57;;
73142;SDS011;61343;53.694;9.988;2022-10-31T04:23:30;59.90;;;25.50;;
73142;SDS011;61343;53.694;9.988;2022-10-31T04:25:56;64.10;;;25.53;;
73142;SDS011;61343;53.694;9.988;2022-10-31T04:28:21;60.33;;;26.07;;
73142;SDS011;61343;53.694;9.988;2022-10-31T04:30:47;66.15;;;26.95;;
73142;SDS011;61343;53.694;9.988;2022-10-31T04:33:13;65.90;;;26.37;;
73142;SDS011;61343;53.694;9.988;2022-10-31T04:35:38;57.72;;;24.27;;
73142;SDS011;61343;53.694;9.988;2022-10-31T04:38:04;65.27;;;25.47;;
73142;SDS011;61343;53.694;9.988;2022-10-31T04:40:29;62.57;;;24.97;;
73142;SDS011;61343;53.694;9.988;2022-10-31T04:42:55;57.00;;;24.13;;
73142;SDS011;61343;53.694;9.988;2022-10-31T04:45:20;62.73;;;25.60;;
73142;SDS011;61343;53.694;9.988;2022-10-31T04:47:45;73.77;;;26.73;;
73142;SDS011;61343;53.694;9.988;2022-10-31T04:50:10;62.53;;;26.73;;
73142;SDS011;61343;53.694;9.988;2022-10-31T04:52:39;66.83;;;26.20;;
73142;SDS011;61343;53.694;9.988;2022-10-31T04:55:06;60.75;;;25.98;;
73142;SDS011;61343;53.694;9.988;2022-10-31T04:57:32;61.70;;;26.13;;
73142;SDS011;61343;53.694;9.988;2022-10-31T04:59:57;61.20;;;26.33;;
73142;SDS011;61343;53.694;9.988;2022-10-31T05:02:22;62.60;;;25.87;;
73142;SDS011;61343;53.694;9.988;2022-10-31T05:04:47;68.30;;;26.23;;
73142;SDS011;61343;53.694;9.988;2022-10-31T05:07:13;63.23;;;24.87;;
73142;SDS011;61343;53.694;9.988;2022-10-31T05:09:38;60.40;;;24.93;;
73142;SDS011;61343;53.694;9.988;2022-10-31T05:12:03;59.33;;;24.90;;
73142;SDS011;61343;53.694;9.988;2022-10-31T05:14:28;65.60;;;25.07;;
73142;SDS011;61343;53.694;9.988;2022-10-31T05:16:54;62.30;;;24.23;;
73142;SDS011;61343;53.694;9.988;2022-10-31T05:19:19;67.27;;;24.83;;
73142;SDS011;61343;53.694;9.988;2022-10-31T05:21:44;58.27;;;24.40;;
73142;SDS011;61343;53.694;9.988;2022-10-31T05:24:09;61.67;;;24.63;;
73142;SDS011;61343;53.694;9.988;2022-10-31T05:26:35;62.30;;;24.73;;
73142;SDS011;61343;53.694;9.988;2022-10-31T05:29:00;62.50;;;24.80;;
73142;SDS011;61343;53.694;9.988;2022-10-31T05:31:25;55.93;;;23.57;;
73142;SDS011;61343;53.694;9.988;2022-10-31T05:33:50;57.30;;;23.37;;
73142;SDS011;61343;53.694;9.988;2022-10-31T05:36:16;58.38;;;22.52;;
73142;SDS011;61343;53.694;9.988;2022-10-31T05:38:41;57.67;;;22.57;;
73142;SDS011;61343;53.694;9.988;2022-10-31T05:41:06;54.23;;;22.30;;
73142;SDS011;61343;53.694;9.988;2022-10-31T05:43:32;76.40;;;23.20;;
73142;SDS011;61343;53.694;9.988;2022-10-31T05:45:57;67.03;;;23.87;;
73142;SDS011;61343;53.694;9.988;2022-10-31T05:48:22;61.27;;;22.87;;
73142;SDS011;61343;53.694;9.988;2022-10-31T05:50:48;66.87;;;22.60;;
73142;SDS011;61343;53.694;9.988;2022-10-31T05:53:13;62.03;;;22.75;;
73142;SDS011;61343;53.694;9.988;2022-10-31T05:55:39;62.73;;;22.90;;
73142;SDS011;61343;53.694;9.988;2022-10-31T05:58:08;61.05;;;21.90;;
73142;SDS011;61343;53.694;9.988;2022-10-31T06:00:33;61.75;;;21.83;;
73142;SDS011;61343;53.694;9.988;2022-10-31T06:03:05;58.80;;;21.30;;
73142;SDS011;61343;53.694;9.988;2022-10-31T06:05:31;59.33;;;21.07;;
73142;SDS011;61343;53.694;9.988;2022-10-31T06:07:57;60.50;;;20.23;;
73142;SDS011;61343;53.694;9.988;2022-10-31T06:10:23;58.88;;;19.83;;
73142;SDS011;61343;53.694;9.988;2022-10-31T06:12:49;56.17;;;19.03;;
73142;SDS011;61343;53.694;9.988;2022-10-31T06:15:15;54.50;;;20.60;;
73142;SDS011;61343;53.694;9.988;2022-10-31T06:17:40;52.53;;;20.13;;
73142;SDS011;61343;53.694;9.988;2022-10-31T06:20:06;64.10;;;20.58;;
73142;SDS011;61343;53.694;9.988;2022-10-31T06:22:32;56.40;;;21.27;;
73142;SDS011;61343;53.694;9.988;2022-10-31T06:24:58;48.45;;;19.63;;
73142;SDS011;61343;53.694;9.988;2022-10-31T06:27:23;46.93;;;19.30;;
73142;SDS011;61343;53.694;9.988;2022-10-31T06:29:49;53.90;;;18.23;;
73142;SDS011;61343;53.694;9.988;2022-10-31T06:32:14;54.37;;;17.37;;
73142;SDS011;61343;53.694;9.988;2022-10-31T06:34:40;57.33;;;16.97;;
73142;SDS011;61343;53.694;9.988;2022-10-31T06:37:06;55.33;;;17.50;;
73142;SDS011;61343;53.694;9.988;2022-10-31T06:39:32;50.13;;;18.27;;
73142;SDS011;61343;53.694;9.988;2022-10-31T06:41:58;51.23;;;18.50;;
73142;SDS011;61343;53.694;9.988;2022-10-31T06:44:23;45.23;;;17.87;;
73142;SDS011;61343;53.694;9.988;2022-10-31T06:46:49;64.72;;;18.45;;
73142;SDS011;61343;53.694;9.988;2022-10-31T06:49:14;62.70;;;18.47;;
73142;SDS011;61343;53.694;9.988;2022-10-31T06:51:39;44.50;;;17.33;;
73142;SDS011;61343;53.694;9.988;2022-10-31T06:54:05;48.50;;;17.27;;
73142;SDS011;61343;53.694;9.988;2022-10-31T06:56:30;71.40;;;17.77;;
73142;SDS011;61343;53.694;9.988;2022-10-31T06:58:55;48.50;;;16.07;;
73142;SDS011;61343;53.694;9.988;2022-10-31T07:01:21;46.20;;;15.73;;
73142;SDS011;61343;53.694;9.988;2022-10-31T07:03:46;49.43;;;14.57;;
73142;SDS011;61343;53.694;9.988;2022-10-31T07:06:11;57.43;;;16.57;;
73142;SDS011;61343;53.694;9.988;2022-10-31T07:08:36;49.13;;;16.47;;
73142;SDS011;61343;53.694;9.988;2022-10-31T07:11:02;54.90;;;16.10;;
73142;SDS011;61343;53.694;9.988;2022-10-31T07:13:27;38.53;;;14.63;;
73142;SDS011;61343;53.694;9.988;2022-10-31T07:15:53;77.53;;;18.00;;
73142;SDS011;61343;53.694;9.988;2022-10-31T07:18:20;53.67;;;16.08;;
73142;SDS011;61343;53.694;9.988;2022-10-31T07:20:46;59.30;;;16.90;;
73142;SDS011;61343;53.694;9.988;2022-10-31T07:23:12;57.05;;;15.73;;
73142;SDS011;61343;53.694;9.988;2022-10-31T07:25:38;50.33;;;14.57;;
73142;SDS011;61343;53.694;9.988;2022-10-31T07:28:04;46.40;;;14.43;;
73142;SDS011;61343;53.694;9.988;2022-10-31T07:30:30;41.47;;;13.82;;
73142;SDS011;61343;53.694;9.988;2022-10-31T07:32:56;38.13;;;13.87;;
73142;SDS011;61343;53.694;9.988;2022-10-31T07:35:22;61.67;;;17.13;;
73142;SDS011;61343;53.694;9.988;2022-10-31T07:37:49;45.33;;;15.37;;
73142;SDS011;61343;53.694;9.988;2022-10-31T07:40:15;58.63;;;16.87;;
73142;SDS011;61343;53.694;9.988;2022-10-31T07:42:42;51.57;;;15.33;;
73142;SDS011;61343;53.694;9.988;2022-10-31T07:45:10;48.88;;;16.60;;
73142;SDS011;61343;53.694;9.988;2022-10-31T07:47:40;44.40;;;15.98;;
73142;SDS011;61343;53.694;9.988;2022-10-31T07:50:07;41.35;;;14.27;;
73142;SDS011;61343;53.694;9.988;2022-10-31T07:52:33;51.47;;;14.38;;
73142;SDS011;61343;53.694;9.988;2022-10-31T07:54:58;47.57;;;15.00;;
73142;SDS011;61343;53.694;9.988;2022-10-31T07:57:24;40.77;;;13.17;;
73142;SDS011;61343;53.694;9.988;2022-10-31T07:59:49;32.90;;;13.10;;
73142;SDS011;61343;53.694;9.988;2022-10-31T08:02:14;37.30;;;14.57;;
73142;SDS011;61343;53.694;9.988;2022-10-31T08:04:39;43.77;;;15.33;;
73142;SDS011;61343;53.694;9.988;2022-10-31T08:07:05;47.17;;;15.77;;
73142;SDS011;61343;53.694;9.988;2022-10-31T08:09:30;47.93;;;14.97;;
73142;SDS011;61343;53.694;9.988;2022-10-31T08:11:55;66.00;;;16.20;;
73142;SDS011;61343;53.694;9.988;2022-10-31T08:14:20;34.67;;;14.80;;
73142;SDS011;61343;53.694;9.988;2022-10-31T08:16:47;38.25;;;14.32;;
73142;SDS011;61343;53.694;9.988;2022-10-31T08:19:12;39.83;;;15.63;;
73142;SDS011;61343;53.694;9.988;2022-10-31T08:21:38;39.93;;;15.77;;
73142;SDS011;61343;53.694;9.988;2022-10-31T08:24:03;38.60;;;16.17;;
73142;SDS011;61343;53.694;9.988;2022-10-31T08:26:28;47.87;;;15.93;;
73142;SDS011;61343;53.694;9.988;2022-10-31T08:28:54;36.77;;;14.73;;
73142;SDS011;61343;53.694;9.988;2022-10-31T08:31:19;32.23;;;13.80;;
73142;SDS011;61343;53.694;9.988;2022-10-31T08:33:45;31.42;;;13.50;;
73142;SDS011;61343;53.694;9.988;2022-10-31T08:36:11;39.50;;;14.53;;
73142;SDS011;61343;53.694;9.988;2022-10-31T08:38:36;32.27;;;13.80;;
73142;SDS011;61343;53.694;9.988;2022-10-31T08:41:01;35.33;;;12.57;;
73142;SDS011;61343;53.694;9.988;2022-10-31T08:43:26;27.47;;;11.67;;
73142;SDS011;61343;53.694;9.988;2022-10-31T08:45:52;32.93;;;12.73;;
73142;SDS011;61343;53.694;9.988;2022-10-31T08:48:19;29.67;;;11.17;;
73142;SDS011;61343;53.694;9.988;2022-10-31T08:50:45;31.87;;;11.60;;
73142;SDS011;61343;53.694;9.988;2022-10-31T08:53:12;25.37;;;12.00;;
73142;SDS011;61343;53.694;9.988;2022-10-31T08:55:40;37.10;;;12.68;;
73142;SDS011;61343;53.694;9.988;2022-10-31T08:58:08;30.75;;;12.80;;
73142;SDS011;61343;53.694;9.988;2022-10-31T09:00:35;27.95;;;12.63;;
73142;SDS011;61343;53.694;9.988;2022-10-31T09:03:02;27.97;;;12.60;;
73142;SDS011;61343;53.694;9.988;2022-10-31T09:05:30;29.55;;;13.63;;
73142;SDS011;61343;53.694;9.988;2022-10-31T09:07:59;25.67;;;11.80;;
73142;SDS011;61343;53.694;9.988;2022-10-31T09:10:26;33.72;;;14.50;;
73142;SDS011;61343;53.694;9.988;2022-10-31T09:13:00;31.90;;;13.07;;
73142;SDS011;61343;53.694;9.988;2022-10-31T09:15:27;31.20;;;13.38;;
73142;SDS011;61343;53.694;9.988;2022-10-31T09:17:53;28.67;;;13.50;;
73142;SDS011;61343;53.694;9.988;2022-10-31T09:20:19;25.27;;;12.83;;
73142;SDS011;61343;53.694;9.988;2022-10-31T09:22:45;31.63;;;13.48;;
73142;SDS011;61343;53.694;9.988;2022-10-31T09:25:11;28.67;;;11.70;;
73142;SDS011;61343;53.694;9.988;2022-10-31T09:27:36;26.40;;;12.50;;
73142;SDS011;61343;53.694;9.988;2022-10-31T09:30:02;26.57;;;12.07;;
73142;SDS011;61343;53.694;9.988;2022-10-31T09:32:28;24.98;;;11.30;;
73142;SDS011;61343;53.694;9.988;2022-10-31T09:34:53;26.23;;;12.30;;
73142;SDS011;61343;53.694;9.988;2022-10-31T09:37:18;28.00;;;12.77;;
73142;SDS011;61343;53.694;9.988;2022-10-31T09:39:44;29.60;;;13.40;;
73142;SDS011;61343;53.694;9.988;2022-10-31T09:45:23;29.92;;;12.45;;
73142;SDS011;61343;53.694;9.988;2022-10-31T09:50:58;27.30;;;12.93;;
73142;SDS011;61343;53.694;9.988;2022-10-31T09:56:10;26.52;;;12.18;;
73142;SDS011;61343;53.694;9.988;2022-10-31T09:58:40;29.65;;;13.63;;
73142;SDS011;61343;53.694;9.988;2022-10-31T10:03:57;26.07;;;12.20;;
73142;SDS011;61343;53.694;9.988;2022-10-31T10:06:28;29.17;;;13.25;;
73142;SDS011;61343;53.694;9.988;2022-10-31T10:08:54;30.88;;;12.70;;
73142;SDS011;61343;53.694;9.988;2022-10-31T10:11:25;26.95;;;11.50;;
73142;SDS011;61343;53.694;9.988;2022-10-31T10:22:40;30.20;;;12.23;;
73142;SDS011;61343;53.694;9.988;2022-10-31T10:25:13;32.25;;;11.65;;
73142;SDS011;61343;53.694;9.988;2022-10-31T10:27:54;26.90;;;11.18;;
73142;SDS011;61343;53.694;9.988;2022-10-31T10:33:08;25.98;;;10.52;;
73142;SDS011;61343;53.694;9.988;2022-10-31T10:35:39;24.50;;;9.90;;
73142;SDS011;61343;53.694;9.988;2022-10-31T10:40:39;25.10;;;10.40;;
73142;SDS011;61343;53.694;9.988;2022-10-31T10:46:01;21.65;;;8.93;;
73142;SDS011;61343;53.694;9.988;2022-10-31T10:51:45;22.38;;;8.98;;
73142;SDS011;61343;53.694;9.988;2022-10-31T10:57:45;22.05;;;8.95;;
73142;SDS011;61343;53.694;9.988;2022-10-31T11:01:08;20.80;;;9.15;;
73142;SDS011;61343;53.694;9.988;2022-10-31T11:03:06;19.60;;;8.37;;
73142;SDS011;61343;53.694;9.988;2022-10-31T11:05:46;20.52;;;8.57;;
73142;SDS011;61343;53.694;9.988;2022-10-31T11:08:31;22.00;;;8.43;;
73142;SDS011;61343;53.694;9.988;2022-10-31T11:13:44;24.47;;;10.40;;
73142;SDS011;61343;53.694;9.988;2022-10-31T11:16:13;22.63;;;9.95;;
73142;SDS011;61343;53.694;9.988;2022-10-31T11:18:51;19.05;;;9.20;;
73142;SDS011;61343;53.694;9.988;2022-10-31T11:21:21;18.75;;;8.15;;
73142;SDS011;61343;53.694;9.988;2022-10-31T11:24:11;18.60;;;9.03;;
73142;SDS011;61343;53.694;9.988;2022-10-31T11:26:40;22.73;;;8.70;;
73142;SDS011;61343;53.694;9.988;2022-10-31T11:29:12;22.50;;;9.55;;
73142;SDS011;61343;53.694;9.988;2022-10-31T11:31:40;20.77;;;9.13;;
73142;SDS011;61343;53.694;9.988;2022-10-31T11:34:11;19.50;;;8.53;;
73142;SDS011;61343;53.694;9.988;2022-10-31T11:36:42;18.50;;;8.38;;
73142;SDS011;61343;53.694;9.988;2022-10-31T11:39:16;20.08;;;9.20;;
73142;SDS011;61343;53.694;9.988;2022-10-31T11:41:45;23.48;;;9.13;;
73142;SDS011;61343;53.694;9.988;2022-10-31T11:44:22;19.85;;;9.10;;
73142;SDS011;61343;53.694;9.988;2022-10-31T11:46:54;20.00;;;9.00;;
73142;SDS011;61343;53.694;9.988;2022-10-31T11:52:00;20.05;;;8.65;;
73142;SDS011;61343;53.694;9.988;2022-10-31T11:54:30;21.67;;;9.07;;
73142;SDS011;61343;53.694;9.988;2022-10-31T11:56:57;23.25;;;8.93;;
73142;SDS011;61343;53.694;9.988;2022-10-31T11:59:24;21.90;;;9.70;;
73142;SDS011;61343;53.694;9.988;2022-10-31T12:01:53;20.63;;;9.35;;
73142;SDS011;61343;53.694;9.988;2022-10-31T12:04:23;20.23;;;9.27;;
73142;SDS011;61343;53.694;9.988;2022-10-31T12:06:56;23.88;;;9.38;;
73142;SDS011;61343;53.694;9.988;2022-10-31T12:09:26;23.58;;;10.35;;
73142;SDS011;61343;53.694;9.988;2022-10-31T12:12:17;22.20;;;11.02;;
73142;SDS011;61343;53.694;9.988;2022-10-31T12:25:58;24.75;;;11.52;;
73142;SDS011;61343;53.694;9.988;2022-10-31T12:34:20;20.73;;;10.97;;
73142;SDS011;61343;53.694;9.988;2022-10-31T12:40:03;21.77;;;10.93;;
73142;SDS011;61343;53.694;9.988;2022-10-31T12:42:55;21.65;;;9.23;;
73142;SDS011;61343;53.694;9.988;2022-10-31T12:48:30;20.83;;;9.93;;
73142;SDS011;61343;53.694;9.988;2022-10-31T12:51:15;22.45;;;10.07;;
73142;SDS011;61343;53.694;9.988;2022-10-31T12:59:35;20.65;;;10.25;;
73142;SDS011;61343;53.694;9.988;2022-10-31T13:04:53;18.80;;;9.50;;
73142;SDS011;61343;53.694;9.988;2022-10-31T13:07:24;19.38;;;10.15;;
73142;SDS011;61343;53.694;9.988;2022-10-31T13:12:37;22.77;;;10.30;;
73142;SDS011;61343;53.694;9.988;2022-10-31T13:15:05;20.87;;;10.20;;
73142;SDS011;61343;53.694;9.988;2022-10-31T13:17:42;23.92;;;11.25;;
73142;SDS011;61343;53.694;9.988;2022-10-31T13:20:24;19.45;;;9.43;;
73142;SDS011;61343;53.694;9.988;2022-10-31T13:22:54;21.77;;;10.50;;
73142;SDS011;61343;53.694;9.988;2022-10-31T13:25:30;22.38;;;10.68;;
73142;SDS011;61343;53.694;9.988;2022-10-31T13:28:03;19.60;;;10.17;;
73142;SDS011;61343;53.694;9.988;2022-10-31T13:30:38;20.45;;;10.13;;
73142;SDS011;61343;53.694;9.988;2022-10-31T13:35:46;27.20;;;12.10;;
73142;SDS011;61343;53.694;9.988;2022-10-31T13:41:11;20.27;;;10.60;;
73142;SDS011;61343;53.694;9.988;2022-10-31T13:44:06;23.77;;;10.25;;
73142;SDS011;61343;53.694;9.988;2022-10-31T13:46:39;22.98;;;11.02;;
73142;SDS011;61343;53.694;9.988;2022-10-31T13:54:51;22.03;;;10.67;;
73142;SDS011;61343;53.694;9.988;2022-10-31T13:57:31;23.48;;;10.02;;
73142;SDS011;61343;53.694;9.988;2022-10-31T14:00:01;25.13;;;10.98;;
73142;SDS011;61343;53.694;9.988;2022-10-31T14:02:33;21.95;;;10.35;;
73142;SDS011;61343;53.694;9.988;2022-10-31T14:05:01;23.63;;;10.57;;
73142;SDS011;61343;53.694;9.988;2022-10-31T14:07:30;22.00;;;10.27;;
73142;SDS011;61343;53.694;9.988;2022-10-31T14:10:06;21.95;;;10.35;;
73142;SDS011;61343;53.694;9.988;2022-10-31T14:12:47;24.25;;;10.40;;
73142;SDS011;61343;53.694;9.988;2022-10-31T14:15:20;24.65;;;11.43;;
73142;SDS011;61343;53.694;9.988;2022-10-31T14:18:02;27.48;;;11.07;;
73142;SDS011;61343;53.694;9.988;2022-10-31T14:20:39;22.40;;;11.23;;
73142;SDS011;61343;53.694;9.988;2022-10-31T14:29:38;20.92;;;10.90;;
73142;SDS011;61343;53.694;9.988;2022-10-31T14:34:33;22.80;;;9.87;;
73142;SDS011;61343;53.694;9.988;2022-10-31T14:39:51;18.42;;;9.07;;
73142;SDS011;61343;53.694;9.988;2022-10-31T14:42:51;21.27;;;9.35;;
73142;SDS011;61343;53.694;9.988;2022-10-31T14:50:48;19.98;;;8.65;;
73142;SDS011;61343;53.694;9.988;2022-10-31T14:53:21;21.92;;;8.85;;
73142;SDS011;61343;53.694;9.988;2022-10-31T14:55:52;21.50;;;8.00;;
73142;SDS011;61343;53.694;9.988;2022-10-31T14:58:25;18.92;;;8.40;;
73142;SDS011;61343;53.694;9.988;2022-10-31T15:01:01;16.93;;;8.23;;
73142;SDS011;61343;53.694;9.988;2022-10-31T15:05:56;17.40;;;8.30;;
73142;SDS011;61343;53.694;9.988;2022-10-31T15:08:26;20.33;;;8.20;;
73142;SDS011;61343;53.694;9.988;2022-10-31T15:10:55;16.83;;;7.93;;
73142;SDS011;61343;53.694;9.988;2022-10-31T15:13:21;19.33;;;8.90;;
73142;SDS011;61343;53.694;9.988;2022-10-31T15:15:47;16.73;;;8.68;;
73142;SDS011;61343;53.694;9.988;2022-10-31T15:18:17;20.67;;;9.40;;
73142;SDS011;61343;53.694;9.988;2022-10-31T15:20:46;16.50;;;8.50;;
73142;SDS011;61343;53.694;9.988;2022-10-31T15:23:14;24.40;;;10.10;;
73142;SDS011;61343;53.694;9.988;2022-10-31T15:25:42;24.60;;;10.60;;
73142;SDS011;61343;53.694;9.988;2022-10-31T15:28:14;25.70;;;11.40;;
73142;SDS011;61343;53.694;9.988;2022-10-31T15:30:50;26.73;;;12.25;;
73142;SDS011;61343;53.694;9.988;2022-10-31T15:33:24;27.88;;;12.30;;
73142;SDS011;61343;53.694;9.988;2022-10-31T15:36:03;29.48;;;12.85;;
73142;SDS011;61343;53.694;9.988;2022-10-31T15:38:29;26.10;;;12.63;;
73142;SDS011;61343;53.694;9.988;2022-10-31T15:40:56;31.65;;;13.73;;
73142;SDS011;61343;53.694;9.988;2022-10-31T15:43:25;26.37;;;12.00;;
73142;SDS011;61343;53.694;9.988;2022-10-31T15:45:55;24.35;;;11.07;;
73142;SDS011;61343;53.694;9.988;2022-10-31T15:48:22;25.30;;;11.38;;
73142;SDS011;61343;53.694;9.988;2022-10-31T15:50:53;22.27;;;10.77;;
73142;SDS011;61343;53.694;9.988;2022-10-31T15:54:10;22.52;;;11.18;;
73142;SDS011;61343;53.694;9.988;2022-10-31T15:56:11;19.90;;;9.97;;
73142;SDS011;61343;53.694;9.988;2022-10-31T15:58:44;22.92;;;10.15;;
73142;SDS011;61343;53.694;9.988;2022-10-31T16:01:28;18.35;;;8.80;;
73142;SDS011;61343;53.694;9.988;2022-10-31T16:04:02;19.48;;;9.00;;
73142;SDS011;61343;53.694;9.988;2022-10-31T16:06:37;17.45;;;8.23;;
73142;SDS011;61343;53.694;9.988;2022-10-31T16:09:04;18.27;;;8.10;;
73142;SDS011;61343;53.694;9.988;2022-10-31T16:11:48;16.92;;;8.40;;
73142;SDS011;61343;53.694;9.988;2022-10-31T16:14:21;22.10;;;8.03;;
73142;SDS011;61343;53.694;9.988;2022-10-31T16:16:50;19.05;;;8.15;;
73142;SDS011;61343;53.694;9.988;2022-10-31T16:19:21;19.48;;;9.02;;
73142;SDS011;61343;53.694;9.988;2022-10-31T16:21:50;18.67;;;9.13;;
73142;SDS011;61343;53.694;9.988;2022-10-31T16:27:02;20.77;;;9.52;;
73142;SDS011;61343;53.694;9.988;2022-10-31T16:29:38;20.52;;;9.35;;
73142;SDS011;61343;53.694;9.988;2022-10-31T16:35:23;21.75;;;10.27;;
73142;SDS011;61343;53.694;9.988;2022-10-31T16:37:51;22.53;;;10.20;;
73142;SDS011;61343;53.694;9.988;2022-10-31T16:40:16;23.20;;;10.45;;
73142;SDS011;61343;53.694;9.988;2022-10-31T16:42:42;21.87;;;10.23;;
73142;SDS011;61343;53.694;9.988;2022-10-31T16:45:13;24.60;;;10.70;;
73142;SDS011;61343;53.694;9.988;2022-10-31T16:47:41;23.85;;;10.85;;